Time;durP1;ratioP1;P1;durP2;ratioP2;P2;SDS_P1;SDS_P2;PMS_P1;PMS_P2;Temp;Humidity;BMP_temperature;BMP_pressure;BME280_temperature;BME280_humidity;BME280_pressure;Samples;Min_cycle;Max_cycle;Signal;HPM_P1;HPM_P2
2023/01/08 00:01:38;;;;;;;40.98;30.50;;;21.90;72.90;;;;;;1889718;75;21184;-86
2023/01/08 00:04:08;;;;;;;41.70;30.92;;;21.80;73.10;;;;;;1888339;75;21097;-85
2023/01/08 00:06:39;;;;;;;40.88;29.67;;;21.90;73.30;;;;;;1844553;78;21148;-85
2023/01/08 00:09:11;;;;;;;41.50;29.90;;;21.90;73.00;;;;;;1848539;77;21517;-86
2023/01/08 00:11:43;;;;;;;40.85;29.25;;;21.90;73.20;;;;;;1853193;76;21085;-85
2023/01/08 00:14:14;;;;;;;40.98;30.15;;;21.90;72.90;;;;;;1834715;76;21576;-85
2023/01/08 00:16:44;;;;;;;38.67;28.67;;;21.90;73.70;;;;;;1846935;77;21152;-85
2023/01/08 00:19:15;;;;;;;39.27;29.87;;;21.90;72.50;;;;;;1849761;76;21148;-84
2023/01/08 00:22:01;;;;;;;45.48;29.85;;;21.90;72.40;;;;;;1838786;77;21077;-85
2023/01/08 00:24:32;;;;;;;42.55;27.87;;;21.90;72.50;;;;;;1842727;75;21064;-85
2023/01/08 00:27:04;;;;;;;39.15;28.95;;;22.00;72.50;;;;;;1854569;74;21220;-87
2023/01/08 00:29:36;;;;;;;42.03;30.12;;;22.00;72.30;;;;;;1838691;76;21081;-84
2023/01/08 00:32:07;;;;;;;40.58;29.45;;;22.10;72.00;;;;;;1844557;76;21083;-85
2023/01/08 00:34:44;;;;;;;37.45;27.77;;;22.10;71.80;;;;;;1845164;76;21094;-84
2023/01/08 00:37:17;;;;;;;39.33;27.52;;;22.10;71.60;;;;;;1850832;77;21111;-84
2023/01/08 00:39:49;;;;;;;38.13;29.37;;;22.20;71.80;;;;;;1846672;76;21263;-86
2023/01/08 00:42:20;;;;;;;38.95;28.40;;;22.20;71.80;;;;;;1839950;78;21111;-88
2023/01/08 00:44:51;;;;;;;41.42;30.48;;;22.20;71.10;;;;;;1829177;76;21099;-87
2023/01/08 00:47:23;;;;;;;39.98;29.63;;;22.30;70.80;;;;;;1827952;79;21148;-89
2023/01/08 00:49:54;;;;;;;43.10;30.97;;;22.30;70.70;;;;;;1849099;76;21068;-87
2023/01/08 00:52:25;;;;;;;38.90;29.92;;;22.30;70.70;;;;;;1844866;76;21064;-88
2023/01/08 00:54:56;;;;;;;40.95;29.42;;;22.40;70.70;;;;;;1843975;76;21170;-87
2023/01/08 00:57:27;;;;;;;39.35;27.27;;;22.30;70.40;;;;;;1843910;76;21106;-88
2023/01/08 00:59:57;;;;;;;39.55;28.10;;;22.40;70.70;;;;;;1848461;76;21049;-86
2023/01/08 01:02:28;;;;;;;38.75;28.67;;;22.40;70.70;;;;;;1845965;76;21132;-87
2023/01/08 01:04:59;;;;;;;42.35;29.37;;;22.40;70.80;;;;;;1931573;73;21055;-86
2023/01/08 01:07:30;;;;;;;39.25;29.55;;;22.50;70.90;;;;;;1930421;73;21188;-86
2023/01/08 01:10:01;;;;;;;43.15;30.32;;;22.50;70.60;;;;;;1931297;73;21665;-85
2023/01/08 01:12:32;;;;;;;41.08;28.62;;;22.60;70.60;;;;;;1942493;73;21550;-87
2023/01/08 01:15:04;;;;;;;39.70;28.75;;;22.60;70.10;;;;;;1929834;73;21200;-86
2023/01/08 01:17:35;;;;;;;39.45;29.42;;;22.70;69.70;;;;;;1924743;73;21130;-86
2023/01/08 01:20:08;;;;;;;41.92;29.32;;;22.60;69.20;;;;;;1931286;73;21528;-86
2023/01/08 01:22:39;;;;;;;40.17;28.50;;;22.60;69.30;;;;;;1936824;73;21071;-86
2023/01/08 01:25:10;;;;;;;41.70;29.40;;;22.70;69.20;;;;;;1904827;74;21045;-86
2023/01/08 01:27:44;;;;;;;39.98;27.17;;;22.70;68.90;;;;;;1932602;73;21047;-86
2023/01/08 01:30:15;;;;;;;39.60;27.98;;;22.70;68.60;;;;;;1930230;73;21086;-87
2023/01/08 01:32:53;;;;;;;37.00;28.25;;;22.80;68.50;;;;;;1939421;73;21195;-87
2023/01/08 01:35:24;;;;;;;34.50;26.30;;;22.80;68.60;;;;;;1891692;74;21234;-87
2023/01/08 01:37:54;;;;;;;37.78;26.42;;;22.80;68.60;;;;;;1942252;73;21094;-87
2023/01/08 01:40:25;;;;;;;35.90;26.50;;;22.80;68.10;;;;;;1935209;73;21085;-87
2023/01/08 01:42:56;;;;;;;35.30;25.20;;;22.90;68.00;;;;;;1928397;73;21118;-88
2023/01/08 01:45:30;;;;;;;38.60;24.65;;;22.90;67.70;;;;;;1928912;73;21091;-87
2023/01/08 01:48:09;;;;;;;39.13;28.00;;;22.80;67.40;;;;;;1894375;74;21176;-86
2023/01/08 01:50:45;;;;;;;36.80;26.82;;;22.90;67.70;;;;;;1932555;73;21124;-88
2023/01/08 01:53:24;;;;;;;36.42;27.30;;;22.90;67.80;;;;;;1937464;73;21114;-88
2023/01/08 01:55:57;;;;;;;43.48;30.27;;;22.90;67.50;;;;;;1931236;73;21224;-88
2023/01/08 01:58:34;;;;;;;35.40;26.25;;;23.00;67.50;;;;;;1889059;74;21135;-88
2023/01/08 02:01:10;;;;;;;34.45;25.68;;;23.00;66.50;;;;;;1931493;73;21180;-87
2023/01/08 02:03:48;;;;;;;35.48;26.87;;;23.00;66.70;;;;;;1901335;74;21123;-88
2023/01/08 02:06:39;;;;;;;35.75;25.43;;;23.10;66.70;;;;;;1904258;74;21057;-87
2023/01/08 02:09:31;;;;;;;34.80;25.30;;;23.10;65.70;;;;;;1896117;74;21108;-86
2023/01/08 02:12:16;;;;;;;33.05;25.17;;;23.10;65.40;;;;;;1907865;74;21080;-87
2023/01/08 02:14:55;;;;;;;32.35;25.85;;;23.20;65.80;;;;;;1897121;74;21062;-88
2023/01/08 02:17:28;;;;;;;36.58;25.92;;;23.20;66.20;;;;;;1900806;74;21236;-86
2023/01/08 02:20:05;;;;;;;35.50;26.02;;;23.30;66.30;;;;;;1898708;74;21140;-89
2023/01/08 02:22:43;;;;;;;36.30;24.63;;;23.40;66.20;;;;;;1848878;76;21137;-87
2023/01/08 02:25:39;;;;;;;33.58;24.27;;;23.40;65.30;;;;;;1909348;74;21131;-87
2023/01/08 02:28:12;;;;;;;33.53;25.23;;;23.50;64.90;;;;;;1902413;74;21524;-87
2023/01/08 02:30:44;;;;;;;29.67;23.27;;;23.60;64.50;;;;;;1927805;73;21186;-88
2023/01/08 02:33:15;;;;;;;32.75;24.52;;;23.70;64.50;;;;;;1897659;74;21603;-88
2023/01/08 02:35:55;;;;;;;31.05;23.70;;;23.70;64.60;;;;;;1898507;74;21150;-91
2023/01/08 02:38:50;;;;;;;33.98;23.18;;;23.80;64.30;;;;;;1906220;74;21074;-88
2023/01/08 02:41:23;;;;;;;28.53;23.80;;;23.80;63.90;;;;;;1904184;74;21136;-87
2023/01/08 02:43:56;;;;;;;29.37;22.17;;;23.90;64.20;;;;;;1894554;74;21195;-88
2023/01/08 02:46:29;;;;;;;29.32;22.70;;;23.90;63.70;;;;;;1892645;74;21164;-87
2023/01/08 02:49:03;;;;;;;31.40;23.32;;;24.00;63.40;;;;;;1891040;74;21563;-90
2023/01/08 02:51:46;;;;;;;29.67;22.48;;;24.00;63.50;;;;;;1893181;74;21171;-88
2023/01/08 02:54:19;;;;;;;30.10;22.82;;;24.00;63.30;;;;;;1888799;74;21132;-89
2023/01/08 02:56:53;;;;;;;28.83;22.80;;;24.00;63.50;;;;;;1905799;74;21060;-89
2023/01/08 02:59:25;;;;;;;33.65;21.90;;;24.00;63.20;;;;;;1885674;74;21148;-89
2023/01/08 03:01:58;;;;;;;31.73;22.75;;;24.00;62.70;;;;;;1907356;74;21124;-90
2023/01/08 03:04:33;;;;;;;33.90;23.35;;;24.00;62.60;;;;;;1882475;74;21151;-91
2023/01/08 03:07:04;;;;;;;33.38;23.32;;;24.00;63.10;;;;;;1905540;74;21200;-87
2023/01/08 03:09:36;;;;;;;31.97;23.87;;;24.10;63.60;;;;;;1905886;74;21093;-90
2023/01/08 03:12:27;;;;;;;30.57;22.82;;;24.10;63.40;;;;;;1902032;74;21156;-90
2023/01/08 03:15:03;;;;;;;31.60;22.22;;;24.20;63.20;;;;;;1876687;75;21022;-90
2023/01/08 03:17:37;;;;;;;31.50;22.95;;;24.20;62.60;;;;;;1935822;73;21044;-87
2023/01/08 03:20:19;;;;;;;30.60;23.57;;;24.30;62.80;;;;;;1911651;72;21100;-88
2023/01/08 03:22:53;;;;;;;37.00;24.02;;;24.30;62.90;;;;;;1935989;72;21080;-88
2023/01/08 03:25:26;;;;;;;31.05;24.02;;;24.40;62.90;;;;;;1926257;73;21133;-90
2023/01/08 03:28:05;;;;;;;30.70;22.55;;;24.40;62.50;;;;;;1926241;73;21272;-88
2023/01/08 03:30:39;;;;;;;29.48;22.10;;;24.50;62.30;;;;;;1922392;73;21194;-90
2023/01/08 03:33:13;;;;;;;27.98;21.42;;;24.50;61.90;;;;;;1842055;76;21211;-90
2023/01/08 03:35:46;;;;;;;29.82;22.40;;;24.60;61.90;;;;;;1877331;75;21133;-92
2023/01/08 03:38:30;;;;;;;28.92;21.55;;;24.70;61.80;;;;;;1899446;74;21214;-89
2023/01/08 03:41:03;;;;;;;30.70;21.27;;;24.80;61.80;;;;;;1897981;74;21730;-88
2023/01/08 03:43:34;;;;;;;29.63;22.22;;;24.80;61.70;;;;;;1890888;74;21073;-88
2023/01/08 03:46:07;;;;;;;32.75;22.07;;;24.80;60.90;;;;;;1892917;74;21144;-91
2023/01/08 03:48:51;;;;;;;30.12;21.50;;;24.90;61.10;;;;;;1902976;74;21201;-88
2023/01/08 03:51:22;;;;;;;28.05;21.75;;;25.00;61.00;;;;;;1887702;74;21186;-90
2023/01/08 03:53:56;;;;;;;28.45;21.45;;;25.00;61.80;;;;;;1896812;74;21144;-88
2023/01/08 03:56:26;;;;;;;29.52;21.40;;;25.10;61.00;;;;;;1907653;74;21146;-90
2023/01/08 03:58:59;;;;;;;31.30;20.97;;;25.10;60.50;;;;;;1899677;75;21656;-89
2023/01/08 04:01:32;;;;;;;30.90;22.13;;;25.10;60.60;;;;;;1928690;73;21053;-90
2023/01/08 04:04:07;;;;;;;27.55;20.90;;;25.20;60.80;;;;;;1914637;73;21190;-90
2023/01/08 04:06:39;;;;;;;29.35;20.92;;;25.20;61.00;;;;;;1895906;75;21602;-90
2023/01/08 04:09:10;;;;;;;28.10;20.57;;;25.30;60.40;;;;;;1902255;74;21126;-89
2023/01/08 04:11:41;;;;;;;28.00;21.10;;;25.30;60.00;;;;;;1907522;74;21121;-90
2023/01/08 04:14:12;;;;;;;26.73;20.35;;;25.40;60.00;;;;;;1902520;74;21097;-89
2023/01/08 04:16:43;;;;;;;27.75;21.37;;;25.50;59.40;;;;;;1907279;74;21136;-88
2023/01/08 04:19:14;;;;;;;29.57;20.40;;;25.60;59.10;;;;;;1920564;74;21084;-90
2023/01/08 04:21:46;;;;;;;26.40;19.57;;;25.60;59.60;;;;;;1910067;74;21085;-88
2023/01/08 04:24:19;;;;;;;24.60;19.42;;;25.70;60.00;;;;;;1893971;74;21073;-91
2023/01/08 04:26:51;;;;;;;27.30;18.87;;;25.80;59.40;;;;;;1911700;74;21056;-90
2023/01/08 04:29:22;;;;;;;29.12;19.73;;;25.90;59.60;;;;;;1904402;74;21050;-88
2023/01/08 04:31:53;;;;;;;24.12;19.30;;;26.00;59.10;;;;;;1900917;74;21051;-93
2023/01/08 04:34:25;;;;;;;23.15;17.57;;;26.20;59.20;;;;;;1872936;75;21163;-91
2023/01/08 04:36:57;;;;;;;35.48;24.30;;;26.40;58.60;;;;;;1891547;74;21085;-91
2023/01/08 04:39:28;;;;;;;22.42;17.37;;;26.50;58.00;;;;;;1898966;74;21077;-92
2023/01/08 04:41:59;;;;;;;21.68;16.82;;;26.50;57.40;;;;;;1866726;75;21117;-91
2023/01/08 04:44:30;;;;;;;24.67;19.70;;;26.60;57.30;;;;;;1903061;74;21644;-87
2023/01/08 04:47:01;;;;;;;22.37;16.73;;;26.60;57.10;;;;;;1905391;74;21116;-90
2023/01/08 04:49:31;;;;;;;20.35;15.78;;;26.60;56.90;;;;;;1896120;74;21111;-89
2023/01/08 04:52:03;;;;;;;22.45;16.02;;;26.50;56.80;;;;;;1869977;75;21133;-90
2023/01/08 04:54:44;;;;;;;22.35;16.52;;;26.50;56.50;;;;;;1892447;74;21147;-92
2023/01/08 04:57:15;;;;;;;22.17;16.20;;;26.50;56.70;;;;;;1901527;74;21579;-91
2023/01/08 04:59:46;;;;;;;19.55;15.88;;;26.50;56.40;;;;;;1878816;74;21069;-90
2023/01/08 05:02:17;;;;;;;19.90;15.78;;;26.70;56.20;;;;;;1895231;74;21050;-83
2023/01/08 05:04:48;;;;;;;17.60;14.63;;;26.80;56.30;;;;;;1888177;74;21089;-89
2023/01/08 05:07:20;;;;;;;19.25;15.38;;;26.90;56.00;;;;;;1913212;74;21155;-87
2023/01/08 05:09:52;;;;;;;24.23;16.60;;;26.90;55.80;;;;;;1918383;73;21076;-85
2023/01/08 05:12:23;;;;;;;20.40;15.93;;;26.90;56.10;;;;;;1912687;73;21597;-87
2023/01/08 05:14:54;;;;;;;21.70;16.35;;;27.10;55.60;;;;;;1911446;73;21181;-87
2023/01/08 05:17:25;;;;;;;20.45;16.57;;;27.20;55.50;;;;;;1897098;75;21167;-89
2023/01/08 05:19:55;;;;;;;22.05;17.07;;;27.30;54.90;;;;;;1903757;75;21113;-90
2023/01/08 05:22:26;;;;;;;24.85;17.65;;;27.40;54.80;;;;;;1892682;73;21181;-89
2023/01/08 05:24:57;;;;;;;22.37;16.02;;;27.40;54.10;;;;;;1912095;75;21244;-90
2023/01/08 05:27:29;;;;;;;24.63;16.67;;;27.50;53.90;;;;;;1912880;75;21260;-88
2023/01/08 05:30:00;;;;;;;21.77;16.55;;;27.50;54.00;;;;;;1913622;75;21185;-88
2023/01/08 05:32:30;;;;;;;22.98;17.37;;;27.60;54.00;;;;;;1910132;73;21170;-88
2023/01/08 05:35:03;;;;;;;22.87;18.00;;;27.60;54.70;;;;;;1909495;73;21213;-88
2023/01/08 05:37:35;;;;;;;22.30;16.50;;;27.70;53.30;;;;;;1915557;74;21475;-88
2023/01/08 05:40:08;;;;;;;23.02;15.95;;;27.70;53.40;;;;;;1926745;73;21064;-88
2023/01/08 05:42:40;;;;;;;22.30;16.30;;;27.80;53.50;;;;;;1914063;73;21093;-88
2023/01/08 05:45:14;;;;;;;22.32;15.55;;;;;;;;;;1916663;73;21138;-88
2023/01/08 05:47:52;;;;;;;18.80;14.85;;;27.90;53.40;;;;;;1914921;73;21086;-90
2023/01/08 05:50:25;;;;;;;16.67;13.72;;;27.90;53.30;;;;;;1845921;76;21101;-89
2023/01/08 05:52:58;;;;;;;17.52;13.95;;;27.90;52.90;;;;;;1859789;76;21219;-88
2023/01/08 05:55:30;;;;;;;18.82;15.40;;;28.00;52.70;;;;;;1852231;76;21105;-88
2023/01/08 05:58:05;;;;;;;19.65;14.25;;;28.00;52.70;;;;;;1853477;75;21184;-85
2023/01/08 06:00:36;;;;;;;19.45;13.65;;;28.10;52.40;;;;;;1866308;76;21229;-86
2023/01/08 06:03:07;;;;;;;18.67;13.35;;;28.20;52.40;;;;;;1881134;74;21147;-85
2023/01/08 06:05:45;;;;;;;16.40;12.68;;;28.30;52.30;;;;;;1915823;75;21157;-84
2023/01/08 06:08:16;;;;;;;18.85;13.00;;;28.40;51.80;;;;;;1902814;75;21089;-85
2023/01/08 06:10:47;;;;;;;17.25;12.30;;;28.30;51.60;;;;;;1921394;73;21309;-87
2023/01/08 06:13:18;;;;;;;20.02;14.30;;;28.30;52.00;;;;;;1922189;73;21052;-84
2023/01/08 06:15:49;;;;;;;17.45;12.90;;;28.20;51.90;;;;;;1925432;73;21141;-88
2023/01/08 06:18:20;;;;;;;15.90;13.75;;;28.10;51.50;;;;;;1924343;73;21075;-86
2023/01/08 06:20:50;;;;;;;25.17;14.10;;;28.00;52.30;;;;;;1922965;73;21138;-87
2023/01/08 06:23:22;;;;;;;20.35;15.00;;;28.00;52.40;;;;;;1923187;73;21033;-87
2023/01/08 06:25:55;;;;;;;17.05;13.85;;;28.00;52.60;;;;;;1926284;74;21103;-86
2023/01/08 06:28:27;;;;;;;19.10;13.72;;;28.00;52.50;;;;;;1925206;75;21186;-86
2023/01/08 06:31:01;;;;;;;17.45;13.83;;;28.10;53.10;;;;;;1936787;73;21068;-86
2023/01/08 06:33:33;;;;;;;18.05;14.83;;;28.10;52.60;;;;;;1967396;72;21141;-86
2023/01/08 06:36:04;;;;;;;19.52;14.40;;;28.20;52.10;;;;;;1943961;74;21168;-85
2023/01/08 06:38:36;;;;;;;16.40;14.50;;;28.20;52.30;;;;;;1932104;74;21043;-86
2023/01/08 06:41:12;;;;;;;16.77;14.50;;;28.20;52.70;;;;;;1926036;73;21145;-85
2023/01/08 06:43:43;;;;;;;21.75;15.48;;;28.30;52.50;;;;;;1943330;72;21141;-86
2023/01/08 06:46:14;;;;;;;19.10;15.78;;;28.30;52.30;;;;;;1945378;74;21129;-85
2023/01/08 06:48:45;;;;;;;26.93;16.35;;;28.30;52.40;;;;;;1944250;73;21141;-84
2023/01/08 06:51:16;;;;;;;21.40;16.82;;;28.40;52.20;;;;;;1940505;72;21188;-85
2023/01/08 06:53:49;;;;;;;26.68;19.77;;;28.50;51.90;;;;;;1939922;74;21059;-83
2023/01/08 06:56:20;;;;;;;21.75;16.20;;;28.50;52.30;;;;;;1938268;73;21079;-85
2023/01/08 06:58:50;;;;;;;20.02;16.50;;;28.50;52.30;;;;;;1934059;73;21082;-84
2023/01/08 07:01:22;;;;;;;20.68;16.70;;;28.60;51.80;;;;;;1939844;72;21208;-85
2023/01/08 07:03:53;;;;;;;27.48;17.77;;;28.60;51.70;;;;;;1941276;72;21094;-84
2023/01/08 07:06:24;;;;;;;22.50;16.35;;;28.60;52.20;;;;;;1935842;74;21107;-86
2023/01/08 07:08:55;;;;;;;18.50;16.10;;;28.60;52.10;;;;;;1928164;73;21090;-83
2023/01/08 07:11:26;;;;;;;23.15;17.25;;;28.70;52.80;;;;;;1927181;73;21111;-85
2023/01/08 07:14:04;;;;;;;23.38;16.40;;;28.70;51.80;;;;;;1932742;73;21098;-86
2023/01/08 07:16:35;;;;;;;24.35;17.40;;;28.60;52.60;;;;;;1924812;74;21109;-85
2023/01/08 07:19:06;;;;;;;20.57;16.85;;;28.70;52.20;;;;;;1931991;73;21137;-86
2023/01/08 07:21:37;;;;;;;19.70;16.45;;;28.60;52.70;;;;;;1901800;74;21139;-86
2023/01/08 07:24:09;;;;;;;21.60;16.25;;;28.60;53.40;;;;;;1931110;73;21143;-86
2023/01/08 07:26:42;;;;;;;19.42;15.48;;;28.50;52.60;;;;;;1930841;73;21133;-86
2023/01/08 07:29:13;;;;;;;24.02;17.57;;;28.50;53.50;;;;;;1905872;73;21110;-87
2023/01/08 07:32:03;;;;;;;21.68;17.57;;;28.40;52.60;;;;;;1928360;73;21023;-87
2023/01/08 07:34:35;;;;;;;23.12;19.32;;;28.30;53.20;;;;;;1889767;74;21136;-88
2023/01/08 07:37:08;;;;;;;22.70;16.48;;;28.40;53.00;;;;;;1857050;77;21325;-86
2023/01/08 07:39:39;;;;;;;22.70;17.05;;;28.30;52.80;;;;;;1855838;76;21181;-87
2023/01/08 07:42:09;;;;;;;21.68;17.30;;;28.30;52.90;;;;;;1855468;76;21131;-87
2023/01/08 07:44:40;;;;;;;23.25;18.50;;;28.30;53.20;;;;;;1855446;76;21556;-70
2023/01/08 07:47:13;;;;;;;23.12;17.42;;;28.20;52.80;;;;;;1853559;76;21624;-71
2023/01/08 07:49:47;;;;;;;22.07;17.00;;;28.20;53.40;;;;;;1863136;76;21154;-71
2023/01/08 07:52:18;;;;;;;22.17;17.15;;;28.10;52.80;;;;;;1874445;76;21136;-71
2023/01/08 07:54:49;;;;;;;23.55;19.07;;;28.10;52.90;;;;;;1869157;76;21160;-71
2023/01/08 07:57:20;;;;;;;22.35;17.20;;;28.00;53.20;;;;;;1871838;75;21582;-71
2023/01/08 07:59:51;;;;;;;21.68;16.73;;;28.00;53.50;;;;;;1854270;76;21156;-72
2023/01/08 08:02:22;;;;;;;19.17;16.12;;;27.90;53.20;;;;;;1876522;76;21064;-72
2023/01/08 08:04:53;;;;;;;23.15;16.97;;;28.00;52.90;;;;;;1872748;76;21172;-70
2023/01/08 08:07:26;;;;;;;22.52;16.87;;;27.90;53.00;;;;;;1856666;76;21099;-71
2023/01/08 08:09:58;;;;;;;24.47;16.77;;;28.00;53.20;;;;;;1854907;76;21170;-71
2023/01/08 08:12:29;;;;;;;24.12;18.62;;;28.00;53.20;;;;;;1852817;76;21093;-70
2023/01/08 08:15:00;;;;;;;24.40;18.80;;;28.00;53.50;;;;;;1854289;76;21203;-70
2023/01/08 08:17:31;;;;;;;24.15;17.75;;;28.00;53.10;;;;;;1851233;77;21168;-72
2023/01/08 08:20:02;;;;;;;24.15;18.62;;;28.00;54.00;;;;;;1852420;76;21064;-70
2023/01/08 08:22:33;;;;;;;22.25;17.35;;;28.00;53.40;;;;;;1855165;77;21119;-69
2023/01/08 08:25:04;;;;;;;25.37;16.97;;;28.00;53.00;;;;;;1854943;76;21232;-71
2023/01/08 08:27:35;;;;;;;21.25;17.85;;;28.10;53.60;;;;;;1854634;76;21146;-71
2023/01/08 08:30:07;;;;;;;27.45;18.17;;;28.10;52.80;;;;;;1854262;76;21099;-70
2023/01/08 08:32:38;;;;;;;23.47;18.05;;;28.10;53.40;;;;;;1855448;77;21237;-71
2023/01/08 08:35:10;;;;;;;23.80;18.92;;;28.10;53.60;;;;;;1862638;75;21154;-71
2023/01/08 08:37:45;;;;;;;30.68;19.10;;;28.10;54.20;;;;;;1862518;75;21095;-70
2023/01/08 08:40:19;;;;;;;24.12;18.27;;;28.10;53.40;;;;;;1834335;77;21212;-71
2023/01/08 08:42:51;;;;;;;26.25;19.48;;;28.10;53.60;;;;;;1863785;77;21567;-71
2023/01/08 08:45:22;;;;;;;25.75;19.50;;;28.10;53.40;;;;;;1865275;75;21135;-72
2023/01/08 08:47:53;;;;;;;29.37;21.90;;;28.10;53.60;;;;;;1864670;76;21172;-72
2023/01/08 08:50:24;;;;;;;27.42;19.07;;;28.10;53.80;;;;;;1862226;75;21264;-73
2023/01/08 08:52:59;;;;;;;27.13;19.00;;;28.10;53.90;;;;;;1861042;75;21150;-71
2023/01/08 08:55:31;;;;;;;24.37;17.90;;;28.10;54.00;;;;;;1879221;75;21217;-71
2023/01/08 08:58:09;;;;;;;24.95;18.87;;;28.10;54.00;;;;;;1860700;75;21229;-71
2023/01/08 09:00:42;;;;;;;24.25;18.90;;;28.10;54.10;;;;;;1864703;75;21091;-72
2023/01/08 09:03:14;;;;;;;26.27;18.70;;;28.10;54.10;;;;;;1862192;76;21212;-71
2023/01/08 09:05:45;;;;;;;26.70;19.65;;;28.10;53.70;;;;;;1861771;76;21138;-71
2023/01/08 09:08:16;;;;;;;23.00;18.15;;;28.10;53.90;;;;;;1860681;75;21203;-70
2023/01/08 09:10:48;;;;;;;27.90;19.67;;;28.10;54.00;;;;;;1862531;76;21674;-71
2023/01/08 09:13:19;;;;;;;28.02;19.87;;;28.10;54.50;;;;;;1854530;75;21218;-72
2023/01/08 09:15:51;;;;;;;23.15;19.12;;;28.10;53.90;;;;;;1865535;76;21190;-71
2023/01/08 09:18:22;;;;;;;27.15;19.32;;;28.10;53.90;;;;;;1861238;76;21200;-70
2023/01/08 09:20:53;;;;;;;23.70;19.48;;;28.10;53.60;;;;;;1824467;78;21088;-70
2023/01/08 09:23:23;;;;;;;24.82;19.45;;;28.00;53.70;;;;;;1864013;75;21146;-71
2023/01/08 09:26:01;;;;;;;25.48;18.67;;;27.90;53.80;;;;;;1887806;75;21541;-72
2023/01/08 09:28:32;;;;;;;24.00;18.52;;;27.90;53.90;;;;;;1862560;75;21106;-72
2023/01/08 09:31:04;;;;;;;25.92;19.95;;;27.80;54.10;;;;;;1859944;75;21136;-71
2023/01/08 09:33:36;;;;;;;31.97;20.92;;;27.80;54.30;;;;;;1857818;76;21208;-71
2023/01/08 09:36:09;;;;;;;27.10;19.23;;;27.80;54.60;;;;;;1841669;76;21078;-69
2023/01/08 09:38:41;;;;;;;24.95;18.98;;;27.80;54.60;;;;;;1841776;76;21128;-69
2023/01/08 09:41:18;;;;;;;27.02;19.62;;;27.70;54.50;;;;;;1843853;76;21647;-70
2023/01/08 09:43:51;;;;;;;26.23;20.62;;;27.70;54.60;;;;;;1846625;76;21186;-70
2023/01/08 09:46:25;;;;;;;27.82;21.33;;;27.70;54.70;;;;;;1846077;76;21850;-72
2023/01/08 09:48:59;;;;;;;24.32;20.12;;;27.70;54.50;;;;;;1843013;77;21950;-71
2023/01/08 09:51:34;;;;;;;31.55;20.80;;;27.70;54.50;;;;;;1846418;77;21139;-70
2023/01/08 09:54:06;;;;;;;25.93;19.73;;;27.60;54.70;;;;;;1833586;76;21060;-72
2023/01/08 09:56:37;;;;;;;24.95;19.30;;;27.60;55.00;;;;;;1844373;76;21237;-72
2023/01/08 09:59:13;;;;;;;33.15;21.20;;;27.50;55.00;;;;;;1844759;76;21141;-71
2023/01/08 10:01:45;;;;;;;26.40;18.20;;;27.50;55.20;;;;;;1843618;76;21693;-73
2023/01/08 10:04:26;;;;;;;30.08;20.80;;;27.50;55.40;;;;;;1838509;76;21137;-72
2023/01/08 10:07:02;;;;;;;29.98;18.57;;;27.50;55.50;;;;;;1840503;77;21096;-72
2023/01/08 10:09:33;;;;;;;28.30;20.72;;;27.40;55.10;;;;;;1851493;76;21136;-72
2023/01/08 10:12:06;;;;;;;25.85;20.88;;;27.40;55.20;;;;;;1878474;75;21151;-72
2023/01/08 10:14:39;;;;;;;26.33;20.08;;;27.30;55.30;;;;;;1841867;76;21190;-71
2023/01/08 10:17:30;;;;;;;31.60;20.57;;;27.30;55.30;;;;;;1844391;76;21159;-72
2023/01/08 10:20:02;;;;;;;27.67;19.65;;;27.20;55.30;;;;;;1843484;76;21112;-72
2023/01/08 10:22:33;;;;;;;28.20;19.77;;;27.20;55.60;;;;;;1844313;76;21169;-70
2023/01/08 10:25:06;;;;;;;25.77;18.82;;;27.10;55.70;;;;;;1847343;77;21099;-71
2023/01/08 10:27:49;;;;;;;25.65;19.45;;;27.10;55.80;;;;;;1849680;77;21213;-88
2023/01/08 10:30:23;;;;;;;21.85;18.12;;;27.10;56.10;;;;;;1815463;78;21179;-87
2023/01/08 10:32:55;;;;;;;28.23;19.30;;;27.10;56.10;;;;;;1858178;75;21181;-90
2023/01/08 10:35:33;;;;;;;31.93;20.17;;;27.10;56.10;;;;;;1850980;76;21693;-89
2023/01/08 10:38:06;;;;;;;32.20;20.20;;;27.10;56.20;;;;;;1888892;74;21181;-88
2023/01/08 10:40:42;;;;;;;29.00;20.80;;;27.00;56.30;;;;;;1896952;74;21658;-86
2023/01/08 10:43:30;;;;;;;29.82;20.62;;;27.00;56.30;;;;;;1864589;76;21120;-87
2023/01/08 10:46:06;;;;;;;31.12;20.97;;;27.00;56.40;;;;;;1896765;74;21142;-89
2023/01/08 10:48:49;;;;;;;27.42;20.92;;;27.00;56.40;;;;;;1853456;76;21538;-89
2023/01/08 10:51:25;;;;;;;30.72;20.80;;;27.00;56.40;;;;;;1891684;74;21177;-88
2023/01/08 10:53:58;;;;;;;29.00;21.60;;;26.90;56.50;;;;;;1893914;75;21119;-89
2023/01/08 10:56:31;;;;;;;30.90;22.22;;;26.90;56.60;;;;;;1895113;74;21110;-88
2023/01/08 10:59:01;;;;;;;28.27;21.62;;;26.90;56.70;;;;;;1894391;74;21075;-89
2023/01/08 11:01:35;;;;;;;29.48;20.45;;;26.90;56.70;;;;;;1896504;75;21622;-90
2023/01/08 11:04:06;;;;;;;29.92;21.40;;;26.80;56.70;;;;;;1856697;77;21119;-92
2023/01/08 11:06:39;;;;;;;32.00;21.55;;;26.80;56.80;;;;;;1859245;76;21203;-88
2023/01/08 11:09:31;;;;;;;32.15;21.30;;;26.80;56.80;;;;;;1892361;74;21123;-93
2023/01/08 11:12:07;;;;;;;40.03;25.55;;;26.80;56.90;;;;;;1883364;74;21143;-91
2023/01/08 11:14:38;;;;;;;41.30;24.10;;;26.70;56.90;;;;;;1897173;74;21222;-90
2023/01/08 11:17:12;;;;;;;37.95;25.02;;;26.70;56.90;;;;;;1861741;75;21532;-89
2023/01/08 11:19:50;;;;;;;37.42;24.30;;;26.70;57.00;;;;;;1898658;74;21060;-90
2023/01/08 11:22:24;;;;;;;32.40;22.82;;;26.70;57.00;;;;;;1881984;74;21118;-89
2023/01/08 11:24:57;;;;;;;29.60;23.60;;;26.70;57.10;;;;;;1901263;74;21134;-90
2023/01/08 11:27:33;;;;;;;32.33;24.12;;;26.60;57.10;;;;;;1898637;74;21606;-91
2023/01/08 11:30:09;;;;;;;37.05;22.50;;;26.60;57.20;;;;;;1872303;75;21163;-86
2023/01/08 11:32:57;;;;;;;31.10;20.50;;;26.60;57.40;;;;;;1895635;74;21206;-85
2023/01/08 11:35:31;;;;;;;25.85;19.10;;;26.60;57.30;;;;;;1854371;76;21448;-89
2023/01/08 11:38:03;;;;;;;26.65;20.43;;;26.60;57.20;;;;;;1846798;76;21147;-90
2023/01/08 11:40:51;;;;;;;27.05;19.40;;;26.60;57.20;;;;;;1839339;76;21192;-91
2023/01/08 11:43:52;;;;;;;25.37;19.05;;;26.60;57.30;;;;;;1843207;76;21139;-89
2023/01/08 11:46:35;;;;;;;28.17;20.48;;;26.50;57.20;;;;;;1859553;75;21104;-88
2023/01/08 11:49:17;;;;;;;28.23;19.65;;;26.50;57.40;;;;;;1860824;75;21055;-91
2023/01/08 11:51:59;;;;;;;29.95;20.68;;;26.50;57.40;;;;;;1861703;76;21080;-92
2023/01/08 11:54:33;;;;;;;32.10;21.33;;;26.50;57.40;;;;;;1864384;75;21160;-90
2023/01/08 11:57:18;;;;;;;27.35;21.55;;;26.50;57.50;;;;;;1895328;74;21190;-90
2023/01/08 12:00:13;;;;;;;28.52;21.55;;;26.50;57.50;;;;;;1871663;76;21608;-88
2023/01/08 12:02:55;;;;;;;35.25;20.70;;;26.50;57.60;;;;;;1823890;77;21131;-88
2023/01/08 12:05:29;;;;;;;31.48;20.88;;;26.40;57.60;;;;;;1892667;75;21504;-90
2023/01/08 12:08:08;;;;;;;29.55;21.00;;;26.40;57.60;;;;;;1835512;78;21096;-89
2023/01/08 12:10:59;;;;;;;24.85;19.17;;;26.50;57.70;;;;;;1854567;76;21665;-90
2023/01/08 12:13:45;;;;;;;26.45;19.62;;;26.40;57.60;;;;;;1867439;76;21119;-90
2023/01/08 12:16:34;;;;;;;25.50;19.25;;;26.40;57.60;;;;;;1855862;77;21096;-91
2023/01/08 12:19:22;;;;;;;25.92;18.32;;;26.40;57.60;;;;;;1849046;77;21139;-90
2023/01/08 12:21:55;;;;;;;26.12;19.15;;;26.40;57.70;;;;;;1808444;76;21198;-87
2023/01/08 12:24:40;;;;;;;28.07;18.35;;;26.40;57.80;;;;;;1856394;76;21205;-91
2023/01/08 12:27:14;;;;;;;28.60;18.25;;;26.40;57.80;;;;;;1855682;76;21140;-89
2023/01/08 12:30:00;;;;;;;30.30;19.37;;;26.40;57.90;;;;;;1854017;77;21133;-91
2023/01/08 12:32:36;;;;;;;23.30;17.70;;;26.30;57.90;;;;;;1881520;75;21233;-89
2023/01/08 12:35:22;;;;;;;26.95;18.55;;;26.30;58.00;;;;;;1867955;74;21111;-91
2023/01/08 12:38:13;;;;;;;26.27;17.98;;;26.30;58.00;;;;;;1822008;78;21127;-91
2023/01/08 12:40:47;;;;;;;19.55;16.32;;;26.30;58.10;;;;;;1775132;79;21182;-88
2023/01/08 12:43:26;;;;;;;27.60;17.80;;;26.30;58.20;;;;;;1744296;81;21233;-90
2023/01/08 12:45:59;;;;;;;23.55;17.12;;;26.30;58.20;;;;;;1774008;79;21151;-88
2023/01/08 12:48:32;;;;;;;25.48;17.85;;;26.30;58.30;;;;;;1874356;75;21155;-90
2023/01/08 12:51:09;;;;;;;29.07;17.80;;;26.30;58.30;;;;;;1866533;75;21614;-88
2023/01/08 12:54:01;;;;;;;23.70;17.67;;;26.30;58.40;;;;;;1860019;76;21165;-90
2023/01/08 12:56:49;;;;;;;25.77;17.77;;;26.30;58.30;;;;;;1776279;80;21116;-90
2023/01/08 12:59:34;;;;;;;24.27;17.57;;;26.30;58.30;;;;;;1850501;76;21215;-91
2023/01/08 13:02:35;;;;;;;27.65;17.75;;;26.30;58.40;;;;;;1841052;76;21560;-92
2023/01/08 13:05:15;;;;;;;27.15;18.90;;;26.20;58.30;;;;;;1824503;78;21096;-90